Time;durP1;ratioP1;P1;durP2;ratioP2;P2;SDS_P1;SDS_P2;PMS_P1;PMS_P2;Temp;Humidity;BMP_temperature;BMP_pressure;BME280_temperature;BME280_humidity;BME280_pressure;Samples;Min_cycle;Max_cycle;Signal;HPM_P1;HPM_P2
2022/05/15 00:02:43;;;;;;;1999.90;999.90;;;19.20;99.90;;;;;;4917573;29;20079;-82
2022/05/15 00:05:09;;;;;;;1999.90;999.90;;;19.20;99.90;;;;;;4918147;29;20024;-77
2022/05/15 00:07:35;;;;;;;1999.90;999.90;;;19.20;99.90;;;;;;4914203;29;20468;-77
2022/05/15 00:10:02;;;;;;;1999.90;999.90;;;19.20;99.90;;;;;;4918443;29;20036;-81
2022/05/15 00:12:28;;;;;;;1999.90;999.90;;;19.10;99.90;;;;;;4918178;29;20483;-82
2022/05/15 00:14:53;;;;;;;1999.90;999.90;;;19.10;99.90;;;;;;4916580;29;20043;-77
2022/05/15 00:17:19;;;;;;;1999.90;999.90;;;19.10;99.90;;;;;;4917604;29;20051;-77
2022/05/15 00:19:45;;;;;;;1999.90;999.90;;;19.00;99.90;;;;;;4903781;29;20028;-77
2022/05/15 00:22:10;;;;;;;1999.90;999.90;;;19.00;99.90;;;;;;4917813;29;20377;-82
2022/05/15 00:24:37;;;;;;;1999.90;999.90;;;19.00;99.90;;;;;;4918180;29;20032;-77
2022/05/15 00:27:03;;;;;;;1999.90;999.90;;;19.10;99.90;;;;;;4922347;29;20040;-82
2022/05/15 00:29:30;;;;;;;1999.90;999.90;;;19.00;99.90;;;;;;4918315;29;20050;-82
2022/05/15 00:31:56;;;;;;;1999.90;999.90;;;19.10;99.90;;;;;;4918392;29;20036;-82
2022/05/15 00:34:22;;;;;;;1999.90;999.90;;;19.00;99.90;;;;;;4916281;29;20480;-77
2022/05/15 00:36:48;;;;;;;1999.90;999.90;;;19.00;99.90;;;;;;4916434;29;20051;-81
2022/05/15 00:39:14;;;;;;;1999.90;999.90;;;19.00;99.90;;;;;;4926054;29;20032;-82
2022/05/15 00:41:40;;;;;;;1999.90;999.90;;;18.90;99.90;;;;;;4917929;29;20039;-77
2022/05/15 00:44:08;;;;;;;1999.90;999.90;;;18.80;99.90;;;;;;4921196;29;20029;-78
2022/05/15 00:46:37;;;;;;;1999.90;999.90;;;18.80;99.90;;;;;;4917544;29;20369;-77
2022/05/15 00:49:12;;;;;;;1999.90;999.90;;;18.80;99.90;;;;;;4921377;29;20034;-77
2022/05/15 00:51:43;;;;;;;1999.90;999.90;;;18.80;99.90;;;;;;4915989;29;20024;-82
2022/05/15 00:54:12;;;;;;;1999.90;999.90;;;18.80;99.90;;;;;;4917554;29;20040;-77
2022/05/15 00:56:42;;;;;;;1999.90;999.90;;;18.70;99.90;;;;;;4925693;29;20028;-82
2022/05/15 00:59:12;;;;;;;1999.90;999.90;;;18.80;99.90;;;;;;4917242;29;20047;-78
2022/05/15 01:01:38;;;;;;;1999.90;999.90;;;18.80;99.90;;;;;;4917837;29;20395;-82
2022/05/15 01:04:04;;;;;;;1999.90;999.90;;;18.80;99.90;;;;;;4917101;29;20482;-77
2022/05/15 01:06:31;;;;;;;1999.90;999.90;;;18.80;99.90;;;;;;4917135;29;20037;-77
2022/05/15 01:09:00;;;;;;;1999.90;999.90;;;18.70;99.90;;;;;;4915989;29;20479;-77
2022/05/15 01:11:26;;;;;;;1999.90;999.90;;;18.70;99.90;;;;;;4912603;29;20484;-82
2022/05/15 01:13:52;;;;;;;1999.90;999.90;;;18.70;99.90;;;;;;4908227;29;20028;-82
2022/05/15 01:16:27;;;;;;;1999.90;999.90;;;18.70;99.90;;;;;;4912482;29;20391;-82
2022/05/15 01:18:58;;;;;;;1999.90;999.90;;;18.70;99.90;;;;;;4909977;29;20024;-78
2022/05/15 01:21:31;;;;;;;1999.90;999.90;;;18.70;99.90;;;;;;4912476;29;20033;-77
2022/05/15 01:24:00;;;;;;;1999.90;999.90;;;18.70;99.90;;;;;;4910172;29;20143;-78
2022/05/15 01:26:26;;;;;;;1999.90;999.90;;;18.70;99.90;;;;;;4917300;29;20027;-78
2022/05/15 01:28:53;;;;;;;1999.90;999.90;;;18.70;99.90;;;;;;4919884;29;20027;-81
2022/05/15 01:31:19;;;;;;;1999.90;999.90;;;18.80;99.90;;;;;;4916278;29;20095;-82
2022/05/15 01:33:47;;;;;;;1999.90;999.90;;;18.80;99.90;;;;;;4916928;29;20028;-78
2022/05/15 01:36:13;;;;;;;1999.90;999.90;;;18.80;99.90;;;;;;4907575;29;20606;-78
2022/05/15 01:38:39;;;;;;;1999.90;999.90;;;18.80;99.90;;;;;;4921079;29;20032;-77
2022/05/15 01:41:07;;;;;;;1999.90;999.90;;;18.80;99.90;;;;;;4917451;29;20028;-83
2022/05/15 01:43:33;;;;;;;1999.90;999.90;;;18.80;99.90;;;;;;4921531;29;20028;-82
2022/05/15 01:45:59;;;;;;;1999.90;999.90;;;18.80;99.90;;;;;;4915431;29;20032;-78
2022/05/15 01:48:26;;;;;;;1999.90;999.90;;;18.70;99.90;;;;;;4921590;29;20115;-82
2022/05/15 01:50:52;;;;;;;1999.90;999.90;;;18.60;99.90;;;;;;4917183;29;20060;-78
2022/05/15 01:53:18;;;;;;;1999.90;999.90;;;18.60;99.90;;;;;;4916882;29;20507;-78
2022/05/15 01:55:44;;;;;;;1999.90;999.90;;;18.60;99.90;;;;;;4920938;29;20074;-78
2022/05/15 01:58:10;;;;;;;1999.90;999.90;;;18.60;99.90;;;;;;4920223;29;20068;-78
2022/05/15 02:00:37;;;;;;;1999.90;999.90;;;18.70;99.90;;;;;;4917061;29;20024;-82
2022/05/15 02:03:03;;;;;;;1999.90;999.90;;;18.60;99.90;;;;;;4920185;29;20070;-78
2022/05/15 02:05:28;;;;;;;1999.90;999.90;;;18.70;99.90;;;;;;4918874;29;20068;-78
2022/05/15 02:07:54;;;;;;;1999.90;999.90;;;18.70;99.90;;;;;;4921986;29;20032;-78
2022/05/15 02:10:20;;;;;;;1999.90;999.90;;;18.70;99.90;;;;;;4919399;29;20092;-77
2022/05/15 02:12:46;;;;;;;1999.90;999.90;;;18.70;99.90;;;;;;4920197;29;20028;-78
2022/05/15 02:15:13;;;;;;;1999.90;999.90;;;18.60;99.90;;;;;;4920207;29;20036;-78
2022/05/15 02:17:38;;;;;;;1999.90;999.90;;;18.70;99.90;;;;;;4918642;29;20021;-82
2022/05/15 02:20:05;;;;;;;1999.90;999.90;;;18.60;99.90;;;;;;4918640;29;20410;-78
2022/05/15 02:22:31;;;;;;;1999.90;999.90;;;18.70;99.90;;;;;;4918909;29;20025;-82
2022/05/15 02:24:56;;;;;;;1999.90;999.90;;;18.70;99.90;;;;;;4918190;29;20039;-78
2022/05/15 02:27:22;;;;;;;1999.90;999.90;;;18.70;99.90;;;;;;4925691;29;20035;-78
2022/05/15 02:29:48;;;;;;;1999.90;999.90;;;18.60;99.90;;;;;;4924375;29;20040;-77
2022/05/15 02:32:13;;;;;;;1999.90;999.90;;;18.60;99.90;;;;;;4919967;29;20102;-78
2022/05/15 02:34:39;;;;;;;1999.90;999.90;;;18.70;99.90;;;;;;4919682;29;20096;-78
2022/05/15 02:37:05;;;;;;;1999.90;999.90;;;18.70;99.90;;;;;;4918342;29;20398;-82
2022/05/15 02:39:31;;;;;;;1999.90;999.90;;;18.60;99.90;;;;;;4928982;29;20103;-83
2022/05/15 02:41:57;;;;;;;1999.90;999.90;;;18.70;99.90;;;;;;4922312;29;20028;-82
2022/05/15 02:44:22;;;;;;;1999.90;999.90;;;18.70;99.90;;;;;;4920247;29;20035;-77
2022/05/15 02:46:48;;;;;;;1999.90;999.90;;;18.70;99.90;;;;;;4919308;29;20056;-78
2022/05/15 02:51:58;;;;;;;1999.90;999.90;;;18.70;99.90;;;;;;4919434;29;20086;-78
2022/05/15 02:54:23;;;;;;;1999.90;999.90;;;18.60;99.90;;;;;;4919976;29;20060;-78
2022/05/15 02:56:49;;;;;;;1999.90;999.90;;;18.60;99.90;;;;;;4919143;29;20032;-82
2022/05/15 02:59:15;;;;;;;1999.90;999.90;;;18.70;99.90;;;;;;4918725;29;20036;-78
2022/05/15 03:01:41;;;;;;;1999.90;999.90;;;18.60;99.90;;;;;;4920028;29;20016;-78
2022/05/15 03:04:07;;;;;;;1999.90;999.90;;;18.60;99.90;;;;;;4919340;29;20107;-78
2022/05/15 03:06:33;;;;;;;1999.90;999.90;;;18.60;99.90;;;;;;4917720;29;20020;-78
2022/05/15 03:08:59;;;;;;;1999.90;999.90;;;18.60;99.90;;;;;;4918884;29;20024;-78
2022/05/15 03:11:24;;;;;;;1999.90;999.90;;;18.60;99.90;;;;;;4914705;29;20059;-78
2022/05/15 03:13:50;;;;;;;1999.90;999.90;;;18.60;99.90;;;;;;4908991;29;20035;-78
2022/05/15 03:16:18;;;;;;;1999.90;999.90;;;18.60;99.90;;;;;;4919614;29;20035;-83
2022/05/15 03:18:51;;;;;;;1999.90;999.90;;;18.50;99.90;;;;;;4918693;29;20539;-78
2022/05/15 03:21:30;;;;;;;1999.90;999.90;;;18.50;99.90;;;;;;4917533;29;20056;-78
2022/05/15 03:24:04;;;;;;;1999.90;999.90;;;18.50;99.90;;;;;;4918008;29;20035;-82
2022/05/15 03:26:31;;;;;;;1999.90;999.90;;;18.40;99.90;;;;;;4907962;29;20025;-78
2022/05/15 03:28:58;;;;;;;1999.90;999.90;;;18.40;99.90;;;;;;4920538;29;20112;-78
2022/05/15 03:31:24;;;;;;;1999.90;999.90;;;18.30;99.90;;;;;;4918855;29;20060;-78
2022/05/15 03:33:49;;;;;;;1999.90;999.90;;;18.30;99.90;;;;;;4918260;29;20447;-78
2022/05/15 03:36:16;;;;;;;1999.90;999.90;;;18.30;99.90;;;;;;4918801;29;20440;-78
2022/05/15 03:38:46;;;;;;;1999.90;999.90;;;18.20;99.90;;;;;;4927413;29;20108;-78
2022/05/15 03:41:13;;;;;;;1999.90;999.90;;;18.20;99.90;;;;;;4918817;29;20080;-78
2022/05/15 03:43:39;;;;;;;1999.90;999.90;;;18.10;99.90;;;;;;4922950;29;20095;-77
2022/05/15 03:46:06;;;;;;;1999.90;999.90;;;18.00;99.90;;;;;;4918906;29;20062;-77
2022/05/15 03:48:32;;;;;;;1999.90;999.90;;;18.00;99.90;;;;;;4923783;29;20047;-77
2022/05/15 03:50:59;;;;;;;1999.90;999.90;;;18.00;99.90;;;;;;4917490;29;20495;-82
2022/05/15 03:53:26;;;;;;;1999.90;999.90;;;18.00;99.90;;;;;;4917702;29;20089;-83
2022/05/15 03:55:55;;;;;;;1999.90;999.90;;;17.90;99.90;;;;;;4923838;29;20404;-77
2022/05/15 03:58:22;;;;;;;1999.90;999.90;;;17.90;99.90;;;;;;4920806;28;20024;-77
2022/05/15 04:00:48;;;;;;;1999.90;999.90;;;17.80;99.90;;;;;;4917115;29;20039;-83
2022/05/15 04:03:14;;;;;;;1999.90;999.90;;;17.80;99.90;;;;;;4917147;29;20032;-78
2022/05/15 04:05:39;;;;;;;1999.90;999.90;;;17.80;99.90;;;;;;4917433;29;20028;-77
2022/05/15 04:08:05;;;;;;;1999.90;999.90;;;17.70;99.90;;;;;;4917977;29;20046;-78
2022/05/15 04:10:31;;;;;;;1999.90;999.90;;;17.70;99.90;;;;;;4916573;29;20115;-78
2022/05/15 04:12:57;;;;;;;1999.90;999.90;;;17.60;99.90;;;;;;4917342;29;20024;-82
2022/05/15 04:15:23;;;;;;;1999.90;999.90;;;17.60;99.90;;;;;;4913812;29;20037;-81
2022/05/15 04:17:50;;;;;;;1999.90;999.90;;;17.50;99.90;;;;;;4917699;29;20024;-78
2022/05/15 04:20:18;;;;;;;1999.90;999.90;;;17.50;99.90;;;;;;4917562;29;20127;-83
2022/05/15 04:22:44;;;;;;;1999.90;999.90;;;17.50;99.90;;;;;;4917917;29;20119;-82
2022/05/15 04:25:13;;;;;;;1999.90;999.90;;;17.50;99.90;;;;;;4916291;29;20114;-78
2022/05/15 04:27:39;;;;;;;1999.90;999.90;;;17.40;99.90;;;;;;4924031;29;20488;-77
2022/05/15 04:30:07;;;;;;;1999.90;999.90;;;17.40;99.90;;;;;;4915586;29;20035;-83
2022/05/15 04:32:32;;;;;;;1999.90;999.90;;;17.30;99.90;;;;;;4917803;29;20495;-78
2022/05/15 04:34:58;;;;;;;1999.90;999.90;;;17.40;99.90;;;;;;4916271;29;20095;-78
2022/05/15 04:37:24;;;;;;;1999.90;999.90;;;17.30;99.90;;;;;;4916773;29;20368;-77
2022/05/15 04:39:50;;;;;;;1999.90;999.90;;;17.40;99.90;;;;;;4917723;29;20035;-78
2022/05/15 04:42:16;;;;;;;1999.90;999.90;;;17.30;99.90;;;;;;4921521;29;20394;-82
2022/05/15 04:44:42;;;;;;;1999.90;999.90;;;17.30;99.90;;;;;;4917059;29;20028;-77
2022/05/15 04:47:07;;;;;;;1999.90;999.90;;;17.30;99.90;;;;;;4916553;29;20392;-78
2022/05/15 04:49:33;;;;;;;1999.90;999.90;;;17.30;99.90;;;;;;4923256;29;20117;-78
2022/05/15 04:51:59;;;;;;;1999.90;999.90;;;17.30;99.90;;;;;;4915851;29;20036;-83
2022/05/15 04:54:24;;;;;;;1999.90;999.90;;;17.30;99.90;;;;;;4917595;29;20051;-78
2022/05/15 04:56:50;;;;;;;1999.90;999.90;;;17.30;99.90;;;;;;4916974;29;20111;-78
2022/05/15 04:59:16;;;;;;;1999.90;999.90;;;17.30;99.90;;;;;;4915997;29;20031;-83
2022/05/15 05:01:41;;;;;;;1999.90;999.90;;;17.30;99.90;;;;;;4916894;29;20050;-78
2022/05/15 05:04:07;;;;;;;1999.90;999.90;;;17.30;99.90;;;;;;4917354;29;20036;-78
2022/05/15 05:06:33;;;;;;;1999.90;999.90;;;17.30;99.90;;;;;;4916995;29;20519;-80
2022/05/15 05:08:59;;;;;;;1999.90;999.90;;;17.30;99.90;;;;;;4916748;29;20035;-78
2022/05/15 05:11:24;;;;;;;1999.90;999.90;;;17.40;99.90;;;;;;4912261;29;20084;-77
2022/05/15 05:13:50;;;;;;;1999.90;999.90;;;17.40;99.90;;;;;;4909031;29;20028;-78
2022/05/15 05:16:17;;;;;;;1999.90;999.90;;;17.30;99.90;;;;;;4917039;29;20028;-78
2022/05/15 05:18:43;;;;;;;1999.90;999.90;;;17.40;99.90;;;;;;4915951;29;20028;-77
2022/05/15 05:21:08;;;;;;;1999.90;999.90;;;17.40;99.90;;;;;;4917280;29;20024;-78
2022/05/15 05:23:34;;;;;;;1999.90;999.90;;;17.50;99.90;;;;;;4915800;29;20122;-82
2022/05/15 05:26:00;;;;;;;1999.90;999.90;;;17.50;99.90;;;;;;4916945;29;20028;-82
2022/05/15 05:28:27;;;;;;;1999.90;999.90;;;17.60;99.90;;;;;;4922140;29;20039;-77
2022/05/15 05:30:53;;;;;;;1999.90;999.90;;;17.60;99.90;;;;;;4915230;29;20123;-78
2022/05/15 05:33:19;;;;;;;1999.90;999.90;;;17.70;99.90;;;;;;4915481;29;20035;-78
2022/05/15 05:35:45;;;;;;;1999.90;999.90;;;17.80;99.90;;;;;;4916969;29;20029;-83
2022/05/15 05:38:11;;;;;;;1999.90;999.90;;;17.90;99.90;;;;;;4927365;29;20059;-78
2022/05/15 05:40:37;;;;;;;1999.90;999.90;;;17.90;99.90;;;;;;4921415;29;20031;-78
2022/05/15 05:43:02;;;;;;;1999.90;999.90;;;18.00;99.90;;;;;;4924642;29;20016;-78
2022/05/15 05:45:29;;;;;;;1999.90;999.90;;;18.10;99.90;;;;;;4920737;29;20029;-77
2022/05/15 05:47:55;;;;;;;1999.90;999.90;;;18.20;99.90;;;;;;4923318;29;20410;-82
2022/05/15 05:50:24;;;;;;;1999.90;999.90;;;18.30;99.90;;;;;;4922236;29;20036;-77
2022/05/15 05:52:50;;;;;;;1999.90;999.90;;;18.40;99.90;;;;;;4920102;29;20075;-77
2022/05/15 05:55:18;;;;;;;1999.90;999.90;;;18.50;99.90;;;;;;4922047;29;20047;-83
2022/05/15 05:57:45;;;;;;;1999.90;999.90;;;18.50;99.90;;;;;;4926831;29;20371;-77
2022/05/15 06:00:26;;;;;;;1999.90;999.90;;;18.60;99.90;;;;;;4920494;29;20080;-78
2022/05/15 06:02:51;;;;;;;1999.90;999.90;;;18.70;99.90;;;;;;4920333;29;20034;-78
2022/05/15 06:05:19;;;;;;;1999.90;999.90;;;18.80;99.90;;;;;;4918990;29;20115;-78
2022/05/15 06:07:44;;;;;;;1999.90;999.90;;;19.00;99.90;;;;;;4920610;29;20107;-78
2022/05/15 06:10:12;;;;;;;1999.90;999.90;;;19.10;99.90;;;;;;4920487;29;20111;-78
2022/05/15 06:12:42;;;;;;;1999.90;999.90;;;19.20;99.90;;;;;;4919185;29;20506;-83
2022/05/15 06:15:09;;;;;;;1999.90;999.90;;;19.30;99.90;;;;;;4915797;29;20028;-83
2022/05/15 06:17:35;;;;;;;1999.90;999.90;;;19.50;99.90;;;;;;4916704;29;20028;-78
2022/05/15 06:20:07;;;;;;;1999.90;999.90;;;19.60;99.90;;;;;;4919987;29;20482;-78
2022/05/15 06:22:36;;;;;;;1999.90;999.90;;;19.70;99.90;;;;;;4918870;29;20032;-82
2022/05/15 06:25:02;;;;;;;1999.90;999.90;;;19.80;99.90;;;;;;4920052;29;20044;-83
2022/05/15 06:27:27;;;;;;;1999.90;999.90;;;20.00;99.90;;;;;;4925891;29;20036;-84
2022/05/15 06:29:57;;;;;;;1999.90;999.90;;;20.10;99.90;;;;;;4918121;29;20040;-83
2022/05/15 06:32:23;;;;;;;1999.90;999.90;;;20.20;99.90;;;;;;4920131;29;20470;-83
2022/05/15 06:34:49;;;;;;;1999.90;999.90;;;20.20;99.90;;;;;;4919458;29;20032;-78
2022/05/15 06:37:15;;;;;;;1999.90;999.90;;;20.30;99.90;;;;;;4920201;29;20518;-83
2022/05/15 06:39:40;;;;;;;1999.90;999.90;;;20.40;99.90;;;;;;4927992;29;20020;-77
2022/05/15 06:42:07;;;;;;;1999.90;999.90;;;20.40;99.90;;;;;;4923427;29;20036;-83
2022/05/15 06:44:32;;;;;;;1999.90;999.90;;;20.50;99.90;;;;;;4919757;29;20036;-79
2022/05/15 06:46:58;;;;;;;1999.90;999.90;;;20.50;99.90;;;;;;4919517;29;20220;-83
2022/05/15 06:49:24;;;;;;;1999.90;999.90;;;20.50;99.90;;;;;;4924921;29;20047;-83
2022/05/15 06:51:50;;;;;;;1999.90;999.90;;;20.50;99.90;;;;;;4919346;29;20550;-78
2022/05/15 06:54:15;;;;;;;1999.90;999.90;;;20.50;99.90;;;;;;4920088;29;20056;-78
2022/05/15 06:59:25;;;;;;;1999.90;999.90;;;20.60;99.90;;;;;;4919712;29;20072;-78
2022/05/15 07:01:51;;;;;;;1999.90;999.90;;;20.70;99.90;;;;;;4919657;29;20032;-83
2022/05/15 07:04:27;;;;;;;1999.90;999.90;;;21.00;99.90;;;;;;4918925;29;20444;-83
2022/05/15 07:06:52;;;;;;;1999.90;999.90;;;21.30;99.90;;;;;;4918959;29;20040;-83
2022/05/15 07:09:18;;;;;;;1999.90;999.90;;;21.40;99.90;;;;;;4919289;29;20503;-78
2022/05/15 07:11:44;;;;;;;1999.90;999.90;;;21.60;99.90;;;;;;4919194;29;20099;-79
2022/05/15 07:14:10;;;;;;;1999.90;999.90;;;21.80;99.90;;;;;;4918529;29;20390;-84
2022/05/15 07:16:36;;;;;;;1999.90;999.90;;;22.00;99.90;;;;;;4908964;29;20024;-83
2022/05/15 07:19:03;;;;;;;1999.90;999.90;;;22.20;99.90;;;;;;4919431;29;20025;-83
2022/05/15 07:21:28;;;;;;;1999.90;999.90;;;22.30;99.90;;;;;;4933390;29;20032;-83
2022/05/15 07:23:54;;;;;;;1999.90;999.90;;;22.60;99.90;;;;;;4919360;29;20588;-78
2022/05/15 07:26:20;;;;;;;1999.90;999.90;;;22.80;99.90;;;;;;4917749;29;20043;-78
2022/05/15 07:28:50;;;;;;;1999.90;999.90;;;23.00;99.90;;;;;;4925067;29;20510;-78
2022/05/15 07:31:18;;;;;;;1999.90;999.90;;;23.20;99.90;;;;;;4899588;29;20024;-78
2022/05/15 07:33:45;;;;;;;1999.90;999.90;;;23.60;99.90;;;;;;4913471;29;20373;-78
2022/05/15 07:36:11;;;;;;;1999.90;999.90;;;23.90;99.90;;;;;;4918549;29;20178;-78
2022/05/15 07:38:36;;;;;;;1999.90;999.90;;;24.20;99.90;;;;;;4927651;29;20024;-78
2022/05/15 07:41:02;;;;;;;1999.90;999.90;;;24.40;99.90;;;;;;4919375;29;20101;-78
2022/05/15 07:43:28;;;;;;;1999.90;999.90;;;26.60;99.90;;;;;;4923127;29;20028;-78
2022/05/15 07:45:53;;;;;;;1999.90;999.90;;;28.40;98.90;;;;;;4918692;29;20072;-83
2022/05/15 07:48:19;;;;;;;1999.90;999.90;;;28.30;98.40;;;;;;4915466;29;20038;-84
2022/05/15 07:50:45;;;;;;;1999.90;999.90;;;27.70;98.40;;;;;;4917430;29;20028;-83
2022/05/15 07:53:11;;;;;;;1999.90;999.90;;;26.60;99.50;;;;;;4919097;29;20032;-81
2022/05/15 07:55:37;;;;;;;1999.90;999.90;;;25.50;99.90;;;;;;4918066;29;20455;-78
2022/05/15 07:58:03;;;;;;;1999.90;999.90;;;25.90;99.90;;;;;;4917234;29;20112;-83
2022/05/15 08:00:29;;;;;;;1999.90;999.90;;;27.20;98.90;;;;;;4917986;29;20024;-78
2022/05/15 08:03:09;;;;;;;1999.90;999.90;;;26.50;99.70;;;;;;4918208;29;20028;-83
2022/05/15 08:08:21;;;;;;;1999.90;999.90;;;27.50;98.60;;;;;;4918189;29;20039;-83
2022/05/15 08:10:48;;;;;;;1999.90;999.90;;;27.90;98.70;;;;;;4918476;29;20024;-78
2022/05/15 08:13:18;;;;;;;1999.90;999.90;;;29.10;97.20;;;;;;4917513;29;20059;-83
2022/05/15 08:15:45;;;;;;;1999.90;999.90;;;28.80;96.40;;;;;;4913644;29;20480;-83
2022/05/15 08:23:53;;;;;;;1999.90;999.90;;;27.60;98.20;;;;;;4918333;29;20513;-78
2022/05/15 08:26:19;;;;;;;1999.90;999.90;;;28.50;97.70;;;;;;4918129;29;20024;-83
2022/05/15 08:28:46;;;;;;;1999.90;999.90;;;28.30;97.40;;;;;;4923712;29;20032;-83
2022/05/15 08:31:13;;;;;;;1999.90;999.90;;;29.50;96.50;;;;;;4917125;29;20028;-79
2022/05/15 08:33:39;;;;;;;1999.90;999.90;;;30.10;95.70;;;;;;4917660;29;20032;-83
2022/05/15 08:36:07;;;;;;;1999.90;999.90;;;30.80;94.60;;;;;;4916553;29;20028;-84
2022/05/15 08:38:37;;;;;;;1999.90;999.90;;;32.20;93.30;;;;;;4927621;29;20074;-78
2022/05/15 08:41:27;;;;;;;1999.90;999.90;;;33.40;92.60;;;;;;4917642;29;20031;-83
2022/05/15 08:44:14;;;;;;;1999.90;999.90;;;34.20;91.40;;;;;;4929124;29;20032;-82
2022/05/15 08:46:47;;;;;;;1999.90;999.90;;;33.80;90.80;;;;;;4916605;29;20495;-84
2022/05/15 08:49:19;;;;;;;1999.90;999.90;;;33.50;91.20;;;;;;4921829;29;20048;-78
2022/05/15 08:52:07;;;;;;;1999.90;999.90;;;32.50;91.80;;;;;;4917276;29;20091;-84
2022/05/15 08:54:37;;;;;;;1999.90;999.90;;;32.10;92.30;;;;;;4911735;29;20496;-78
2022/05/15 08:57:03;;;;;;;1999.90;999.90;;;32.30;92.10;;;;;;4930556;29;20051;-78
2022/05/15 08:59:38;;;;;;;1999.90;999.90;;;33.00;91.80;;;;;;4923986;29;20028;-78
2022/05/15 09:02:05;;;;;;;1999.90;999.90;;;33.40;91.60;;;;;;4897521;29;20029;-82
2022/05/15 09:04:31;;;;;;;1999.90;999.90;;;33.80;91.10;;;;;;4910950;29;20032;-84
2022/05/15 09:07:19;;;;;;;1999.90;999.90;;;33.40;90.90;;;;;;4917152;29;20043;-78
2022/05/15 09:09:52;;;;;;;1999.90;999.90;;;33.90;90.80;;;;;;4916835;29;20024;-78
2022/05/15 09:12:21;;;;;;;1999.90;999.90;;;33.70;90.70;;;;;;4917389;29;20028;-78
2022/05/15 09:15:21;;;;;;;1999.90;999.90;;;33.60;90.80;;;;;;4916802;29;20039;-78
2022/05/15 09:17:57;;;;;;;1999.90;999.90;;;33.90;90.60;;;;;;4916217;29;20411;-84
2022/05/15 09:20:54;;;;;;;1999.90;999.90;;;33.90;90.70;;;;;;4898007;29;20392;-78
2022/05/15 09:23:36;;;;;;;1999.90;999.90;;;33.50;90.80;;;;;;4906732;29;20032;-83
2022/05/15 09:26:16;;;;;;;1999.90;999.90;;;31.30;92.20;;;;;;4917079;29;20024;-83
2022/05/15 09:28:49;;;;;;;1999.90;999.90;;;29.10;94.10;;;;;;4922345;29;20036;-83
2022/05/15 09:31:28;;;;;;;1999.90;999.90;;;29.00;94.50;;;;;;4916016;29;20484;-83
2022/05/15 09:34:05;;;;;;;1999.90;999.90;;;29.50;94.40;;;;;;4917391;29;20399;-82
2022/05/15 09:36:34;;;;;;;1999.90;999.90;;;28.50;95.30;;;;;;4905307;29;20092;-82
2022/05/15 09:39:17;;;;;;;1999.90;999.90;;;29.30;95.20;;;;;;4913919;29;20066;-83
2022/05/15 09:45:18;;;;;;;1999.90;999.90;;;33.00;91.10;;;;;;4922419;29;20039;-79
2022/05/15 09:47:50;;;;;;;1999.90;999.90;;;32.90;90.60;;;;;;4919299;29;20060;-83
2022/05/15 09:50:38;;;;;;;1999.90;999.90;;;33.60;90.80;;;;;;4918682;29;20381;-83
2022/05/15 09:53:21;;;;;;;1999.90;999.90;;;34.50;90.50;;;;;;4917230;29;20036;-83
2022/05/15 09:56:13;;;;;;;1999.90;999.90;;;34.50;89.10;;;;;;4915198;29;20135;-79
2022/05/15 09:59:01;;;;;;;1999.90;999.90;;;33.90;89.60;;;;;;4917808;29;20518;-83
2022/05/15 10:01:47;;;;;;;1999.90;999.90;;;34.00;90.00;;;;;;4916955;29;20025;-83
2022/05/15 10:04:22;;;;;;;1999.90;999.90;;;34.40;90.00;;;;;;4917253;29;20100;-79
2022/05/15 10:06:54;;;;;;;1999.90;999.90;;;33.80;89.40;;;;;;4904112;29;20063;-83
2022/05/15 10:09:27;;;;;;;1999.90;999.90;;;33.50;90.00;;;;;;4916015;29;20072;-83
2022/05/15 10:12:08;;;;;;;1999.90;999.90;;;33.80;90.20;;;;;;4904443;29;20032;-82
2022/05/15 10:15:06;;;;;;;1999.90;999.90;;;32.30;90.40;;;;;;4915754;29;20039;-82
2022/05/15 10:17:33;;;;;;;1999.90;999.90;;;32.60;91.20;;;;;;4917432;29;20028;-83
2022/05/15 10:20:16;;;;;;;1999.90;999.90;;;33.00;90.60;;;;;;4916566;29;20288;-78
2022/05/15 10:22:56;;;;;;;1999.90;999.90;;;32.40;90.00;;;;;;4912991;29;20029;-82
2022/05/15 10:25:54;;;;;;;1999.90;999.90;;;30.60;92.00;;;;;;4913564;29;20517;-78
2022/05/15 10:28:27;;;;;;;1999.90;999.90;;;29.40;92.90;;;;;;4922220;29;20039;-77
2022/05/15 10:31:15;;;;;;;1999.90;999.90;;;29.10;93.80;;;;;;4918460;29;20444;-82
2022/05/15 10:33:44;;;;;;;1999.90;999.90;;;29.60;93.40;;;;;;4905831;29;20104;-78
2022/05/15 10:36:27;;;;;;;1999.90;999.90;;;31.50;91.80;;;;;;4915508;29;20033;-82
2022/05/15 10:39:47;;;;;;;1999.90;999.90;;;31.00;92.20;;;;;;4926793;29;20036;-83
2022/05/15 10:42:25;;;;;;;1999.90;999.90;;;30.00;92.80;;;;;;4898501;29;20029;-77
2022/05/15 10:45:11;;;;;;;1999.90;999.90;;;29.10;93.90;;;;;;4898911;29;20041;-77
2022/05/15 10:47:45;;;;;;;1999.90;999.90;;;28.70;93.90;;;;;;4881676;29;20024;-82
2022/05/15 10:50:24;;;;;;;1999.90;999.90;;;28.40;94.30;;;;;;4895974;29;20059;-77
2022/05/15 10:57:21;;;;;;;1999.90;999.90;;;29.00;93.90;;;;;;4882716;29;20028;-78
2022/05/15 10:58:54;;;;;;;1999.90;999.90;;;30.60;93.00;;;;;;4887432;29;20027;-76
2022/05/15 11:01:32;;;;;;;1999.90;999.90;;;29.40;94.00;;;;;;4898342;29;20029;-77
2022/05/15 11:04:49;;;;;;;1999.90;999.90;;;28.30;94.90;;;;;;4898427;29;20041;-77
2022/05/15 11:07:37;;;;;;;1999.90;999.90;;;27.40;95.20;;;;;;4877352;29;20044;-82
2022/05/15 11:10:29;;;;;;;1999.90;999.90;;;27.00;95.80;;;;;;4885156;29;20120;-81
2022/05/15 11:13:04;;;;;;;1999.90;999.90;;;26.80;96.10;;;;;;4869623;29;20056;-77
2022/05/15 11:16:01;;;;;;;1999.90;999.90;;;26.80;96.30;;;;;;4888020;29;20127;-81
2022/05/15 11:19:00;;;;;;;1999.90;999.90;;;26.50;94.80;;;;;;4908983;29;20032;-78
2022/05/15 11:21:32;;;;;;;1999.90;999.90;;;26.30;95.40;;;;;;4906453;29;20047;-83
2022/05/15 11:24:11;;;;;;;1999.90;999.90;;;26.30;95.80;;;;;;4918968;29;20028;-77
2022/05/15 11:27:00;;;;;;;1999.90;999.90;;;26.40;95.90;;;;;;4920571;29;20028;-82
2022/05/15 11:29:30;;;;;;;1999.90;999.90;;;26.70;96.00;;;;;;4934953;29;20092;-82
2022/05/15 11:31:57;;;;;;;1999.90;999.90;;;28.00;95.00;;;;;;4918715;29;20032;-77
2022/05/15 11:35:00;;;;;;;1999.90;999.90;;;29.00;94.10;;;;;;4916080;29;20028;-77
2022/05/15 11:37:57;;;;;;;1999.90;999.90;;;30.40;93.10;;;;;;4920779;29;20460;-77
2022/05/15 11:40:33;;;;;;;1999.90;999.90;;;30.00;92.70;;;;;;4923085;29;20028;-77
2022/05/15 11:42:59;;;;;;;1999.90;999.90;;;29.80;92.60;;;;;;4922161;29;20098;-78
2022/05/15 11:45:30;;;;;;;1999.90;999.90;;;29.80;92.20;;;;;;4917202;29;20031;-77
2022/05/15 11:48:13;;;;;;;1999.90;999.90;;;30.10;92.00;;;;;;4918956;29;20032;-77
2022/05/15 11:51:03;;;;;;;1999.90;999.90;;;30.20;92.50;;;;;;4918777;29;20748;-77
2022/05/15 11:53:38;;;;;;;1999.90;999.90;;;29.70;92.40;;;;;;4919264;29;20040;-83
2022/05/15 11:56:33;;;;;;;1999.90;999.90;;;29.10;92.40;;;;;;4918086;29;20407;-82
2022/05/15 11:59:21;;;;;;;1999.90;999.90;;;29.50;91.70;;;;;;4891175;29;20048;-78
2022/05/15 12:01:50;;;;;;;1999.90;999.90;;;29.20;91.40;;;;;;4917595;29;20051;-77
2022/05/15 12:04:40;;;;;;;1999.90;999.90;;;29.50;91.30;;;;;;4906884;29;20031;-78
2022/05/15 12:07:09;;;;;;;1999.90;999.90;;;29.60;91.20;;;;;;4913872;29;20040;-82
2022/05/15 12:09:40;;;;;;;1999.90;999.90;;;29.90;91.50;;;;;;4914276;29;20103;-76
2022/05/15 12:12:23;;;;;;;1999.90;999.90;;;30.50;90.40;;;;;;4918021;29;20096;-82
2022/05/15 12:15:07;;;;;;;1999.90;999.90;;;29.40;91.20;;;;;;4917621;29;20403;-77
2022/05/15 12:17:38;;;;;;;1999.90;999.90;;;28.90;91.80;;;;;;4917419;29;20035;-78
2022/05/15 12:20:30;;;;;;;1999.90;999.90;;;29.10;91.40;;;;;;4907952;29;20029;-79
2022/05/15 12:23:20;;;;;;;1999.90;999.90;;;28.40;91.20;;;;;;4915732;29;20028;-77
2022/05/15 12:25:59;;;;;;;1999.90;999.90;;;27.80;91.90;;;;;;4917949;29;20508;-76
2022/05/15 12:31:17;;;;;;;1999.90;999.90;;;26.50;93.40;;;;;;4918072;29;20035;-83
2022/05/15 12:33:44;;;;;;;1999.90;999.90;;;26.50;93.50;;;;;;4917260;29;20054;-76
2022/05/15 12:36:13;;;;;;;1999.90;999.90;;;26.20;93.20;;;;;;4917578;29;20032;-75
2022/05/15 12:38:45;;;;;;;1999.90;999.90;;;26.50;94.50;;;;;;4927919;29;20035;-77
2022/05/15 12:41:24;;;;;;;1999.90;999.90;;;27.00;95.10;;;;;;4917566;29;20016;-77